createdAt,value
2022-12-14T00:01:26.413Z,18.13
2022-12-14T00:03:55.089Z,21.17
2022-12-14T00:06:25.445Z,23.77
2022-12-14T00:08:54.123Z,20.80
2022-12-14T00:11:24.636Z,19.50
2022-12-14T00:13:53.957Z,21.47
2022-12-14T00:16:24.860Z,25.53
2022-12-14T00:18:54.189Z,22.47
2022-12-14T00:21:22.050Z,21.03
2022-12-14T00:23:52.654Z,20.90
2022-12-14T00:26:25.047Z,20.87
2022-12-14T00:28:53.966Z,27.63
2022-12-14T00:31:24.581Z,18.97
2022-12-14T00:33:52.212Z,21.67
2022-12-14T00:36:21.491Z,19.77
2022-12-14T00:38:48.300Z,20.97
2022-12-14T00:41:15.095Z,19.53
2022-12-14T00:43:42.158Z,18.83
2022-12-14T00:46:09.047Z,19.73
2022-12-14T00:48:36.138Z,24.60
2022-12-14T00:51:03.459Z,19.73
2022-12-14T00:53:30.365Z,21.47
2022-12-14T00:55:57.221Z,22.03
2022-12-14T00:58:25.146Z,17.90
2022-12-14T01:01:06.585Z,19.73
2022-12-14T01:03:34.533Z,17.67
2022-12-14T01:06:02.009Z,20.27
2022-12-14T01:08:35.701Z,21.50
2022-12-14T01:11:07.715Z,23.70
2022-12-14T01:13:35.249Z,20.77
2022-12-14T01:16:08.114Z,24.03
2022-12-14T01:18:36.251Z,19.50
2022-12-14T01:21:16.559Z,20.00
2022-12-14T01:23:44.537Z,21.03
2022-12-14T01:26:13.183Z,18.40
2022-12-14T01:28:40.784Z,17.73
2022-12-14T01:31:16.430Z,20.60
2022-12-14T01:33:44.817Z,18.57
2022-12-14T01:36:14.369Z,17.43
2022-12-14T01:38:41.517Z,18.50
2022-12-14T01:41:18.507Z,18.40
2022-12-14T01:43:50.592Z,16.33
2022-12-14T01:46:58.698Z,19.30
2022-12-14T01:49:32.107Z,18.93
2022-12-14T01:52:05.085Z,16.57
2022-12-14T01:54:34.413Z,19.73
2022-12-14T01:57:01.527Z,20.37
2022-12-14T01:59:34.989Z,19.17
2022-12-14T02:02:04.464Z,17.83
2022-12-14T02:04:35.345Z,21.37
2022-12-14T02:07:03.533Z,18.40
2022-12-14T02:09:35.081Z,17.70
2022-12-14T02:12:16.358Z,21.80
2022-12-14T02:14:44.334Z,19.80
2022-12-14T02:17:13.428Z,17.57
2022-12-14T02:19:43.883Z,17.77
2022-12-14T02:22:32.287Z,20.90
2022-12-14T02:25:26.609Z,16.37
2022-12-14T02:28:17.648Z,18.40
2022-12-14T02:30:57.170Z,17.13
2022-12-14T02:33:35.884Z,14.43
2022-12-14T02:36:20.835Z,17.33
2022-12-14T02:38:53.716Z,15.83
2022-12-14T02:41:44.153Z,17.50
2022-12-14T02:44:34.725Z,17.83
2022-12-14T02:47:41.614Z,18.13
2022-12-14T02:50:22.135Z,18.70
2022-12-14T02:52:48.874Z,18.60
2022-12-14T02:55:24.852Z,21.60
2022-12-14T02:58:14.703Z,18.20
2022-12-14T03:00:42.212Z,21.27
2022-12-14T03:03:09.055Z,18.10
2022-12-14T03:05:36.119Z,15.13
2022-12-14T03:08:11.577Z,17.73
2022-12-14T03:10:49.395Z,20.00
2022-12-14T03:13:28.547Z,16.57
2022-12-14T03:16:04.915Z,17.27
2022-12-14T03:18:57.410Z,20.17
2022-12-14T03:21:40.442Z,19.90
2022-12-14T03:24:15.308Z,13.73
2022-12-14T03:26:56.386Z,15.77
2022-12-14T03:29:28.799Z,21.93
2022-12-14T03:32:02.691Z,14.80
2022-12-14T03:34:41.517Z,16.00
2022-12-14T03:37:34.242Z,20.50
2022-12-14T03:40:01.272Z,17.03
2022-12-14T03:42:58.872Z,15.13
2022-12-14T03:45:38.797Z,17.67
2022-12-14T03:48:30.496Z,14.47
2022-12-14T03:51:06.504Z,15.77
2022-12-14T03:53:39.048Z,18.07
2022-12-14T03:56:42.722Z,14.13
2022-12-14T03:59:50.789Z,12.53
2022-12-14T04:02:27.165Z,14.70
2022-12-14T04:05:37.393Z,15.60
2022-12-14T04:08:22.793Z,17.50
2022-12-14T04:11:12.258Z,12.37
2022-12-14T04:14:06.738Z,14.50
2022-12-14T04:16:57.045Z,15.30
2022-12-14T04:19:31.851Z,13.63
2022-12-14T04:22:08.965Z,13.60
2022-12-14T04:25:16.113Z,14.90
2022-12-14T04:27:54.609Z,12.23
2022-12-14T04:30:21.438Z,21.30
2022-12-14T04:33:00.740Z,12.80
2022-12-14T04:35:37.732Z,14.93
2022-12-14T04:38:14.807Z,17.00
2022-12-14T04:41:01.704Z,12.73
2022-12-14T04:43:32.074Z,14.37
2022-12-14T04:46:05.238Z,12.60
2022-12-14T04:48:45.132Z,13.60
2022-12-14T04:51:22.164Z,13.40
2022-12-14T04:53:53.383Z,20.40
2022-12-14T04:56:30.418Z,12.07
2022-12-14T04:58:57.767Z,12.10
2022-12-14T05:01:58.946Z,20.37
2022-12-14T05:04:57.497Z,13.30
2022-12-14T05:07:31.502Z,11.93
2022-12-14T05:10:31.290Z,15.17
2022-12-14T05:13:11.566Z,12.83
2022-12-14T05:15:48.760Z,15.90
2022-12-14T05:18:16.719Z,11.90
2022-12-14T05:20:43.689Z,11.40
2022-12-14T05:23:10.524Z,14.53
2022-12-14T05:25:37.362Z,17.20
2022-12-14T05:28:04.405Z,9.97
2022-12-14T05:30:31.387Z,12.00
2022-12-14T05:32:58.349Z,13.97
2022-12-14T05:35:25.444Z,12.23
2022-12-14T05:37:52.306Z,10.43
2022-12-14T05:40:19.476Z,13.43
2022-12-14T05:42:49.799Z,18.53
2022-12-14T05:45:21.357Z,15.77
2022-12-14T05:47:48.254Z,24.37
2022-12-14T05:50:15.234Z,14.23
2022-12-14T05:52:42.022Z,15.47
2022-12-14T05:55:09.918Z,14.00
2022-12-14T05:57:36.850Z,14.27
2022-12-14T06:00:04.858Z,11.20
2022-12-14T06:02:31.829Z,13.13
2022-12-14T06:04:58.763Z,12.43
2022-12-14T06:07:27.917Z,13.40
2022-12-14T06:09:55.359Z,12.80
2022-12-14T06:12:22.315Z,13.93
2022-12-14T06:14:51.823Z,11.63
2022-12-14T06:17:18.759Z,12.70
2022-12-14T06:19:50.171Z,12.67
2022-12-14T06:22:18.595Z,10.07
2022-12-14T06:24:45.615Z,12.33
2022-12-14T06:27:12.522Z,16.53
2022-12-14T06:29:39.434Z,11.33
2022-12-14T06:32:06.621Z,10.70
2022-12-14T06:34:38.490Z,16.70
2022-12-14T06:37:06.803Z,12.47
2022-12-14T06:39:33.646Z,13.53
2022-12-14T06:42:00.490Z,11.00
2022-12-14T06:44:30.507Z,10.30
2022-12-14T06:46:57.463Z,10.23
2022-12-14T06:49:24.766Z,9.97
2022-12-14T06:51:51.797Z,11.90
2022-12-14T06:54:21.610Z,11.10
2022-12-14T06:56:49.005Z,12.27
2022-12-14T06:59:17.205Z,15.23
2022-12-14T07:01:44.392Z,10.07
2022-12-14T07:04:11.804Z,10.07
2022-12-14T07:06:40.828Z,13.00
2022-12-14T07:09:12.311Z,13.67
2022-12-14T07:11:39.395Z,12.20
2022-12-14T07:14:07.068Z,9.47
2022-12-14T07:16:35.513Z,10.33
2022-12-14T07:19:02.446Z,11.97
2022-12-14T07:21:29.439Z,13.70
2022-12-14T07:23:56.853Z,9.43
2022-12-14T07:26:26.427Z,15.47
2022-12-14T07:28:54.345Z,10.70
2022-12-14T07:31:24.628Z,9.70
2022-12-14T07:33:57.365Z,8.53
2022-12-14T07:36:26.514Z,10.07
2022-12-14T07:38:55.658Z,7.63
2022-12-14T07:41:28.036Z,12.90
2022-12-14T07:43:56.204Z,9.40
2022-12-14T07:46:25.567Z,9.97
2022-12-14T07:48:54.601Z,10.10
2022-12-14T07:51:23.857Z,15.07
2022-12-14T07:53:51.612Z,12.20
2022-12-14T07:56:25.043Z,11.10
2022-12-14T07:58:52.614Z,12.20
2022-12-14T08:01:21.312Z,13.10
2022-12-14T08:04:00.032Z,14.20
2022-12-14T08:06:31.786Z,14.00
2022-12-14T08:08:59.347Z,12.30
2022-12-14T08:11:26.379Z,16.97
2022-12-14T08:14:02.465Z,20.10
2022-12-14T08:16:32.435Z,14.80
2022-12-14T08:19:00.212Z,12.73
2022-12-14T08:21:28.207Z,24.23
2022-12-14T08:23:57.193Z,19.03
2022-12-14T08:26:31.650Z,17.00
2022-12-14T08:29:00.513Z,14.77
2022-12-14T08:31:30.445Z,16.77
2022-12-14T08:34:00.000Z,17.07
2022-12-14T08:36:29.689Z,15.37
2022-12-14T08:39:00.819Z,13.27
2022-12-14T08:41:29.545Z,11.60
2022-12-14T08:43:58.833Z,11.00
2022-12-14T08:46:27.386Z,13.50
2022-12-14T08:48:55.522Z,12.07
2022-12-14T08:51:24.182Z,18.67
2022-12-14T08:53:52.316Z,13.33
2022-12-14T08:56:22.381Z,12.57
2022-12-14T08:58:51.866Z,19.23
2022-12-14T09:01:32.147Z,13.70
2022-12-14T09:04:08.209Z,14.60
2022-12-14T09:06:38.001Z,12.10
2022-12-14T09:09:09.308Z,14.40
2022-12-14T09:11:37.706Z,17.63
2022-12-14T09:14:04.639Z,11.70
2022-12-14T09:16:31.511Z,13.37
2022-12-14T09:18:58.386Z,16.90
2022-12-14T09:21:25.260Z,14.83
2022-12-14T09:23:57.308Z,12.73
2022-12-14T09:26:26.022Z,29.30
2022-12-14T09:28:55.902Z,18.30
2022-12-14T09:31:26.128Z,19.87
2022-12-14T09:33:54.806Z,18.13
2022-12-14T09:36:24.202Z,18.23
2022-12-14T09:38:52.702Z,19.97
2022-12-14T09:41:30.557Z,14.50
2022-12-14T09:44:02.936Z,22.20
2022-12-14T09:46:38.392Z,19.43
2022-12-14T09:49:05.378Z,14.53
2022-12-14T09:51:36.921Z,17.97
2022-12-14T09:54:10.887Z,22.33
2022-12-14T09:56:38.504Z,17.20
2022-12-14T09:59:05.776Z,15.70
2022-12-14T10:02:29.191Z,22.47
2022-12-14T10:05:05.306Z,13.97
2022-12-14T10:07:48.410Z,19.17
2022-12-14T10:10:26.761Z,20.27
2022-12-14T10:13:04.359Z,22.90
2022-12-14T10:15:37.292Z,20.27
2022-12-14T10:18:49.246Z,18.20
2022-12-14T10:21:13.505Z,19.33
2022-12-14T10:24:01.775Z,20.90
2022-12-14T10:26:53.104Z,20.30
2022-12-14T10:29:30.051Z,23.13
2022-12-14T10:32:16.588Z,16.43
2022-12-14T10:34:44.000Z,23.60
2022-12-14T10:37:25.637Z,17.27
2022-12-14T10:40:19.678Z,21.57
2022-12-14T10:43:30.871Z,25.30
2022-12-14T10:46:16.795Z,30.07
2022-12-14T10:48:55.526Z,21.13
2022-12-14T10:51:26.705Z,20.57
2022-12-14T10:53:56.256Z,22.47
2022-12-14T10:56:31.768Z,25.83
2022-12-14T10:59:25.620Z,26.57
2022-12-14T11:02:15.947Z,20.23
2022-12-14T11:04:46.158Z,20.37
2022-12-14T11:07:15.853Z,20.50
2022-12-14T11:09:43.503Z,22.77
2022-12-14T11:12:16.466Z,27.20
2022-12-14T11:15:06.559Z,17.27
2022-12-14T11:17:42.628Z,20.83
2022-12-14T11:20:09.617Z,16.87
2022-12-14T11:22:51.776Z,25.80
2022-12-14T11:25:53.659Z,20.10
2022-12-14T11:28:31.271Z,21.60
2022-12-14T11:31:12.174Z,16.90
2022-12-14T11:33:50.146Z,18.70
2022-12-14T11:36:24.924Z,20.73
2022-12-14T11:39:00.703Z,22.10
2022-12-14T11:42:04.356Z,26.77
2022-12-14T11:44:36.660Z,20.07
2022-12-14T11:47:10.251Z,18.77
2022-12-14T11:49:40.224Z,19.93
2022-12-14T11:52:14.810Z,23.93
2022-12-14T11:54:49.840Z,19.40
2022-12-14T11:57:36.945Z,22.10
2022-12-14T12:00:08.224Z,20.20
2022-12-14T12:02:46.608Z,30.97
2022-12-14T12:05:19.849Z,20.13
2022-12-14T12:07:49.528Z,22.23
2022-12-14T12:10:23.759Z,21.77
2022-12-14T12:12:57.831Z,24.83
2022-12-14T12:15:35.307Z,39.30
2022-12-14T12:18:16.524Z,20.63
2022-12-14T12:20:58.184Z,20.60
2022-12-14T12:23:39.597Z,25.83
2022-12-14T12:26:24.850Z,18.90
2022-12-14T12:29:00.222Z,29.27
2022-12-14T12:31:34.500Z,18.87
2022-12-14T12:34:05.678Z,27.60
2022-12-14T12:36:33.057Z,14.93
2022-12-14T12:39:05.910Z,11.27
2022-12-14T12:41:54.559Z,11.03
2022-12-14T12:44:55.401Z,9.20
2022-12-14T12:47:41.447Z,13.03
2022-12-14T12:50:23.718Z,12.00
2022-12-14T12:53:00.925Z,11.80
2022-12-14T12:55:35.405Z,10.73
2022-12-14T12:58:05.005Z,12.93
2022-12-14T13:00:33.746Z,10.57
2022-12-14T13:03:19.750Z,12.40
2022-12-14T13:05:48.753Z,13.47
2022-12-14T13:08:37.232Z,9.90
2022-12-14T13:11:28.311Z,49.10
2022-12-14T13:14:02.872Z,14.60
2022-12-14T13:16:37.256Z,11.23
2022-12-14T13:19:50.493Z,15.50
2022-12-14T13:22:07.161Z,12.70
2022-12-14T13:24:36.887Z,12.63
2022-12-14T13:27:42.695Z,15.20
2022-12-14T13:30:15.781Z,11.03
2022-12-14T13:32:45.350Z,14.17
2022-12-14T13:35:24.229Z,11.73
2022-12-14T13:38:12.753Z,19.60
2022-12-14T13:41:11.920Z,11.83
2022-12-14T13:43:52.709Z,10.23
2022-12-14T13:46:25.648Z,11.30
2022-12-14T13:48:56.885Z,10.67
2022-12-14T13:51:28.812Z,12.77
2022-12-14T13:54:02.904Z,11.13
2022-12-14T13:56:33.818Z,19.47
2022-12-14T13:59:05.705Z,18.10
2022-12-14T14:01:47.914Z,12.43
2022-12-14T14:04:18.578Z,11.43
2022-12-14T14:06:47.446Z,14.23
2022-12-14T14:09:27.382Z,18.17
2022-12-14T14:12:00.373Z,14.30
2022-12-14T14:14:45.737Z,11.67
2022-12-14T14:17:18.995Z,15.07
2022-12-14T14:19:49.335Z,13.17
2022-12-14T14:22:25.222Z,17.60
2022-12-14T14:25:31.457Z,15.10
2022-12-14T14:28:00.706Z,14.13
2022-12-14T14:30:35.196Z,16.27
2022-12-14T14:33:43.289Z,16.77
2022-12-14T14:35:50.177Z,22.47
2022-12-14T14:38:32.074Z,19.93
2022-12-14T14:41:18.552Z,16.77
2022-12-14T14:43:55.806Z,17.70
2022-12-14T14:46:45.062Z,14.37
2022-12-14T14:49:39.519Z,24.17
2022-12-14T14:52:40.326Z,21.80
2022-12-14T14:55:52.189Z,17.80
2022-12-14T14:58:22.443Z,21.70
2022-12-14T15:01:10.942Z,18.27
2022-12-14T15:03:58.923Z,15.90
2022-12-14T15:06:33.419Z,18.87
2022-12-14T15:09:14.963Z,19.87
2022-12-14T15:11:58.903Z,21.50
2022-12-14T15:14:43.381Z,18.47
2022-12-14T15:17:21.432Z,17.27
2022-12-14T15:19:54.088Z,18.70
2022-12-14T15:22:25.120Z,17.57
2022-12-14T15:24:59.362Z,15.10
2022-12-14T15:27:44.346Z,13.50
2022-12-14T15:30:11.459Z,19.43
2022-12-14T15:32:47.274Z,17.30
2022-12-14T15:35:18.138Z,13.67
2022-12-14T15:37:59.713Z,17.00
2022-12-14T15:40:30.484Z,17.70
2022-12-14T15:43:00.811Z,14.50
2022-12-14T15:45:41.641Z,14.70
2022-12-14T15:48:21.523Z,13.73
2022-12-14T15:50:55.938Z,15.47
2022-12-14T15:53:40.088Z,15.83
2022-12-14T15:56:23.702Z,17.40
2022-12-14T15:58:52.898Z,16.27
2022-12-14T16:01:22.609Z,17.33
2022-12-14T16:03:53.218Z,23.17
2022-12-14T16:06:25.590Z,16.07
2022-12-14T16:08:55.832Z,15.80
2022-12-14T16:11:33.360Z,18.97
2022-12-14T16:14:05.288Z,22.03
2022-12-14T16:16:32.264Z,14.07
2022-12-14T16:19:20.388Z,16.23
2022-12-14T16:22:10.293Z,17.77
2022-12-14T16:24:38.425Z,17.87
2022-12-14T16:27:17.551Z,21.37
2022-12-14T16:30:08.261Z,18.93
2022-12-14T16:32:35.324Z,19.60
2022-12-14T16:35:03.253Z,24.87
2022-12-14T16:37:33.502Z,20.83
2022-12-14T16:40:00.793Z,17.63
2022-12-14T16:42:28.107Z,17.73
2022-12-14T16:44:55.051Z,17.70
2022-12-14T16:47:44.748Z,20.30
2022-12-14T16:53:21.533Z,23.03
2022-12-14T16:56:16.606Z,24.33
2022-12-14T16:59:04.516Z,23.43
2022-12-14T17:01:44.324Z,26.17
2022-12-14T17:04:13.744Z,23.40
2022-12-14T17:06:46.823Z,24.13
2022-12-14T17:09:25.017Z,29.67
2022-12-14T17:11:55.611Z,24.00
2022-12-14T17:14:22.930Z,22.30
2022-12-14T17:16:59.632Z,27.03
2022-12-14T17:19:33.476Z,22.87
2022-12-14T17:22:01.237Z,23.17
2022-12-14T17:24:37.615Z,21.00
2022-12-14T17:27:04.734Z,25.10
2022-12-14T17:29:33.271Z,21.73
2022-12-14T17:32:03.066Z,20.43
2022-12-14T17:34:30.349Z,22.20
2022-12-14T17:36:57.477Z,21.67
2022-12-14T17:39:24.995Z,19.40
2022-12-14T17:41:52.343Z,23.43
2022-12-14T17:44:21.471Z,22.63
2022-12-14T17:46:52.241Z,27.67
2022-12-14T17:49:34.249Z,21.30
2022-12-14T17:52:07.322Z,31.13
2022-12-14T17:54:34.632Z,33.00
2022-12-14T17:57:01.435Z,38.57
2022-12-14T17:59:28.428Z,22.87
2022-12-14T18:01:55.402Z,22.90
2022-12-14T18:04:22.412Z,27.40
2022-12-14T18:06:49.356Z,25.87
2022-12-14T18:09:18.402Z,26.33
2022-12-14T18:12:06.626Z,34.77
2022-12-14T18:14:32.098Z,27.33
2022-12-14T18:17:00.940Z,30.90
2022-12-14T18:19:29.821Z,20.70
2022-12-14T18:21:56.808Z,30.77
2022-12-14T18:24:26.068Z,31.03
2022-12-14T18:26:53.259Z,32.77
2022-12-14T18:29:22.814Z,29.00
2022-12-14T18:31:50.686Z,24.27
2022-12-14T18:34:17.981Z,28.70
2022-12-14T18:36:44.925Z,30.93
2022-12-14T18:39:11.813Z,24.17
2022-12-14T18:41:38.712Z,28.37
2022-12-14T18:44:05.735Z,30.50
2022-12-14T18:46:32.885Z,23.63
2022-12-14T18:49:00.051Z,26.67
2022-12-14T18:51:27.437Z,26.20
2022-12-14T18:53:57.049Z,35.50
2022-12-14T18:56:25.467Z,27.03
2022-12-14T18:58:53.693Z,35.10
2022-12-14T19:01:22.836Z,29.00
2022-12-14T19:03:50.845Z,40.50
2022-12-14T19:09:11.027Z,31.43
2022-12-14T19:11:41.883Z,31.43
2022-12-14T19:14:09.329Z,27.83
2022-12-14T19:16:36.468Z,38.23
2022-12-14T19:19:03.498Z,45.33
2022-12-14T19:21:31.623Z,35.87
2022-12-14T19:24:02.176Z,30.33
2022-12-14T19:26:30.689Z,28.53
2022-12-14T19:28:57.670Z,28.50
2022-12-14T19:31:24.593Z,34.93
2022-12-14T19:33:51.595Z,33.77
2022-12-14T19:36:18.552Z,31.37
2022-12-14T19:38:49.248Z,31.40
2022-12-14T19:41:17.853Z,33.07
2022-12-14T19:43:45.098Z,33.53
2022-12-14T19:46:14.042Z,34.67
2022-12-14T19:48:42.250Z,33.90
2022-12-14T19:51:11.605Z,30.97
2022-12-14T19:53:40.544Z,33.10
2022-12-14T19:56:08.263Z,26.77
2022-12-14T19:58:35.562Z,23.63
2022-12-14T20:01:07.439Z,30.63
2022-12-14T20:03:34.724Z,31.23
2022-12-14T20:06:02.127Z,33.77
2022-12-14T20:08:30.220Z,32.07
2022-12-14T20:10:57.172Z,29.37
2022-12-14T20:13:26.083Z,35.10
2022-12-14T20:16:00.114Z,32.03
2022-12-14T20:18:28.403Z,25.23
2022-12-14T20:21:06.891Z,30.97
2022-12-14T20:23:35.392Z,28.37
2022-12-14T20:26:07.923Z,37.10
2022-12-14T20:28:34.798Z,30.00
2022-12-14T20:31:05.947Z,27.83
2022-12-14T20:33:33.422Z,24.43
2022-12-14T20:36:00.738Z,35.17
2022-12-14T20:38:28.529Z,28.33
2022-12-14T20:40:55.889Z,30.73
2022-12-14T20:43:22.700Z,28.33
2022-12-14T20:45:49.528Z,26.97
2022-12-14T20:48:16.430Z,35.93
2022-12-14T20:50:43.914Z,29.20
2022-12-14T20:53:17.302Z,27.27
2022-12-14T20:55:44.214Z,24.63
2022-12-14T20:58:11.200Z,29.20
2022-12-14T21:00:38.108Z,27.27
2022-12-14T21:03:05.190Z,29.03
2022-12-14T21:05:32.217Z,32.00
2022-12-14T21:07:59.031Z,28.57
2022-12-14T21:10:25.815Z,27.90
2022-12-14T21:12:52.621Z,34.87
2022-12-14T21:15:21.799Z,32.63
2022-12-14T21:17:49.486Z,31.00
2022-12-14T21:20:16.606Z,28.37
2022-12-14T21:22:44.105Z,31.03
2022-12-14T21:25:10.893Z,34.10
2022-12-14T21:27:39.049Z,25.90
2022-12-14T21:30:08.446Z,30.10
2022-12-14T21:32:37.012Z,31.80
2022-12-14T21:35:04.824Z,26.10
2022-12-14T21:37:31.706Z,31.67
2022-12-14T21:39:58.622Z,33.50
2022-12-14T21:42:26.504Z,30.07
2022-12-14T21:44:54.402Z,40.27
2022-12-14T21:47:31.001Z,35.03
2022-12-14T21:49:58.052Z,30.80
2022-12-14T21:52:27.218Z,31.40
2022-12-14T21:54:54.501Z,41.83
2022-12-14T21:57:49.814Z,34.80
2022-12-14T22:00:18.765Z,32.47
2022-12-14T22:02:45.738Z,31.90
2022-12-14T22:05:13.225Z,28.73
2022-12-14T22:07:40.243Z,36.77
2022-12-14T22:10:07.388Z,31.67
2022-12-14T22:12:34.371Z,31.90
2022-12-14T22:15:01.560Z,33.47
2022-12-14T22:17:31.439Z,33.40
2022-12-14T22:19:59.442Z,36.37
2022-12-14T22:22:26.298Z,37.50
2022-12-14T22:24:53.209Z,28.67
2022-12-14T22:27:21.219Z,31.77
2022-12-14T22:29:48.036Z,37.00
2022-12-14T22:32:15.706Z,39.53
2022-12-14T22:34:43.044Z,35.17
2022-12-14T22:37:09.918Z,30.27
2022-12-14T22:39:36.743Z,33.87
2022-12-14T22:42:03.938Z,31.13
2022-12-14T22:44:32.661Z,36.90
2022-12-14T22:46:59.577Z,28.30
2022-12-14T22:49:26.510Z,31.73
2022-12-14T22:51:53.460Z,40.63
2022-12-14T22:54:26.184Z,30.57
2022-12-14T22:56:56.849Z,32.30
2022-12-14T22:59:45.300Z,42.40
2022-12-14T23:02:12.496Z,30.60
2022-12-14T23:04:45.549Z,40.53
2022-12-14T23:07:23.336Z,31.67
2022-12-14T23:10:09.170Z,31.53
2022-12-14T23:12:54.564Z,37.73
2022-12-14T23:15:40.193Z,38.50
2022-12-14T23:18:26.517Z,35.77
2022-12-14T23:21:12.175Z,34.53
2022-12-14T23:23:58.901Z,42.07
2022-12-14T23:26:44.274Z,41.37
2022-12-14T23:29:30.244Z,40.60
2022-12-14T23:32:15.629Z,29.30
2022-12-14T23:35:00.890Z,31.30
2022-12-14T23:37:46.589Z,27.83
2022-12-14T23:40:32.198Z,36.47
2022-12-14T23:43:30.390Z,34.57
2022-12-14T23:46:16.611Z,41.17
2022-12-14T23:49:02.316Z,35.80
2022-12-14T23:51:48.019Z,36.33
2022-12-14T23:54:33.570Z,31.63
2022-12-14T23:57:21.053Z,37.70
